sensor_id;sensor_type;location;lat;lon;timestamp;P1;durP1;ratioP1;P2;durP2;ratioP2
39740;SDS011;25426;53.478;10.190;2023-05-19T00:01:23;12.27;;;6.55;;
39740;SDS011;25426;53.478;10.190;2023-05-19T00:03:55;9.68;;;5.55;;
39740;SDS011;25426;53.478;10.190;2023-05-19T00:06:28;7.78;;;5.53;;
39740;SDS011;25426;53.478;10.190;2023-05-19T00:09:03;7.65;;;4.80;;
39740;SDS011;25426;53.478;10.190;2023-05-19T00:11:37;8.45;;;5.30;;
39740;SDS011;25426;53.478;10.190;2023-05-19T00:14:09;7.10;;;5.40;;
39740;SDS011;25426;53.478;10.190;2023-05-19T00:16:40;8.57;;;5.38;;
39740;SDS011;25426;53.478;10.190;2023-05-19T00:19:11;9.25;;;5.68;;
39740;SDS011;25426;53.478;10.190;2023-05-19T00:21:42;7.82;;;5.13;;
39740;SDS011;25426;53.478;10.190;2023-05-19T00:24:13;8.23;;;5.35;;
39740;SDS011;25426;53.478;10.190;2023-05-19T00:26:44;10.03;;;4.90;;
39740;SDS011;25426;53.478;10.190;2023-05-19T00:29:15;8.20;;;4.72;;
39740;SDS011;25426;53.478;10.190;2023-05-19T00:31:47;11.60;;;5.90;;
39740;SDS011;25426;53.478;10.190;2023-05-19T00:34:21;6.75;;;5.00;;
39740;SDS011;25426;53.478;10.190;2023-05-19T00:36:52;7.65;;;5.07;;
39740;SDS011;25426;53.478;10.190;2023-05-19T00:39:23;9.47;;;5.93;;
39740;SDS011;25426;53.478;10.190;2023-05-19T00:41:54;8.02;;;4.60;;
39740;SDS011;25426;53.478;10.190;2023-05-19T00:44:25;9.95;;;5.00;;
39740;SDS011;25426;53.478;10.190;2023-05-19T00:46:56;8.75;;;4.90;;
39740;SDS011;25426;53.478;10.190;2023-05-19T00:49:27;7.88;;;5.47;;
39740;SDS011;25426;53.478;10.190;2023-05-19T00:52:01;8.05;;;5.03;;
39740;SDS011;25426;53.478;10.190;2023-05-19T00:54:33;11.07;;;6.35;;
39740;SDS011;25426;53.478;10.190;2023-05-19T00:57:04;8.43;;;5.10;;
39740;SDS011;25426;53.478;10.190;2023-05-19T00:59:36;9.30;;;4.82;;
39740;SDS011;25426;53.478;10.190;2023-05-19T01:02:07;8.63;;;5.25;;
39740;SDS011;25426;53.478;10.190;2023-05-19T01:04:38;6.45;;;4.80;;
39740;SDS011;25426;53.478;10.190;2023-05-19T01:07:10;10.65;;;5.32;;
39740;SDS011;25426;53.478;10.190;2023-05-19T01:09:41;9.53;;;5.60;;
39740;SDS011;25426;53.478;10.190;2023-05-19T01:12:13;9.95;;;5.20;;
39740;SDS011;25426;53.478;10.190;2023-05-19T01:14:45;9.70;;;5.07;;
39740;SDS011;25426;53.478;10.190;2023-05-19T01:17:18;9.38;;;4.82;;
39740;SDS011;25426;53.478;10.190;2023-05-19T01:26:16;9.35;;;4.90;;
39740;SDS011;25426;53.478;10.190;2023-05-19T01:32:18;8.48;;;4.97;;
39740;SDS011;25426;53.478;10.190;2023-05-19T01:34:50;9.57;;;6.10;;
39740;SDS011;25426;53.478;10.190;2023-05-19T01:37:22;9.70;;;6.05;;
39740;SDS011;25426;53.478;10.190;2023-05-19T01:39:53;10.20;;;5.85;;
39740;SDS011;25426;53.478;10.190;2023-05-19T01:42:25;7.53;;;4.93;;
39740;SDS011;25426;53.478;10.190;2023-05-19T01:44:56;9.50;;;5.60;;
39740;SDS011;25426;53.478;10.190;2023-05-19T01:47:29;10.15;;;5.50;;
39740;SDS011;25426;53.478;10.190;2023-05-19T01:50:04;10.65;;;5.30;;
39740;SDS011;25426;53.478;10.190;2023-05-19T01:52:36;7.75;;;4.72;;
39740;SDS011;25426;53.478;10.190;2023-05-19T01:55:07;8.02;;;5.55;;
39740;SDS011;25426;53.478;10.190;2023-05-19T02:01:27;6.97;;;5.10;;
39740;SDS011;25426;53.478;10.190;2023-05-19T02:04:18;6.22;;;4.50;;
39740;SDS011;25426;53.478;10.190;2023-05-19T02:07:14;9.35;;;4.30;;
39740;SDS011;25426;53.478;10.190;2023-05-19T02:10:11;7.47;;;4.70;;
39740;SDS011;25426;53.478;10.190;2023-05-19T02:12:49;9.50;;;5.47;;
39740;SDS011;25426;53.478;10.190;2023-05-19T02:15:27;10.45;;;5.88;;
39740;SDS011;25426;53.478;10.190;2023-05-19T02:18:08;9.40;;;5.77;;
39740;SDS011;25426;53.478;10.190;2023-05-19T02:20:42;10.30;;;6.13;;
39740;SDS011;25426;53.478;10.190;2023-05-19T02:23:13;8.35;;;4.93;;
39740;SDS011;25426;53.478;10.190;2023-05-19T02:25:43;7.17;;;4.40;;
39740;SDS011;25426;53.478;10.190;2023-05-19T02:28:14;8.18;;;5.03;;
39740;SDS011;25426;53.478;10.190;2023-05-19T02:30:45;9.70;;;5.80;;
39740;SDS011;25426;53.478;10.190;2023-05-19T02:33:16;10.45;;;5.70;;
39740;SDS011;25426;53.478;10.190;2023-05-19T02:35:48;6.80;;;4.40;;
39740;SDS011;25426;53.478;10.190;2023-05-19T02:38:19;7.47;;;4.90;;
39740;SDS011;25426;53.478;10.190;2023-05-19T02:40:50;8.75;;;4.60;;
39740;SDS011;25426;53.478;10.190;2023-05-19T02:43:22;8.55;;;5.20;;
39740;SDS011;25426;53.478;10.190;2023-05-19T02:45:53;8.75;;;5.25;;
39740;SDS011;25426;53.478;10.190;2023-05-19T02:48:24;9.10;;;5.82;;
39740;SDS011;25426;53.478;10.190;2023-05-19T02:50:55;10.93;;;6.38;;
39740;SDS011;25426;53.478;10.190;2023-05-19T02:53:26;8.97;;;5.20;;
39740;SDS011;25426;53.478;10.190;2023-05-19T02:55:57;8.80;;;5.28;;
39740;SDS011;25426;53.478;10.190;2023-05-19T02:58:28;10.23;;;6.00;;
39740;SDS011;25426;53.478;10.190;2023-05-19T03:00:59;11.98;;;6.95;;
39740;SDS011;25426;53.478;10.190;2023-05-19T03:03:30;11.10;;;5.97;;
39740;SDS011;25426;53.478;10.190;2023-05-19T03:06:01;11.15;;;5.78;;
39740;SDS011;25426;53.478;10.190;2023-05-19T03:08:33;11.23;;;5.25;;
39740;SDS011;25426;53.478;10.190;2023-05-19T03:11:05;13.10;;;6.57;;
39740;SDS011;25426;53.478;10.190;2023-05-19T03:13:36;9.60;;;5.80;;
39740;SDS011;25426;53.478;10.190;2023-05-19T03:16:07;11.90;;;6.35;;
39740;SDS011;25426;53.478;10.190;2023-05-19T03:18:38;9.80;;;6.10;;
39740;SDS011;25426;53.478;10.190;2023-05-19T03:21:10;10.60;;;6.35;;
39740;SDS011;25426;53.478;10.190;2023-05-19T03:23:41;12.10;;;6.25;;
39740;SDS011;25426;53.478;10.190;2023-05-19T03:26:13;11.43;;;6.53;;
39740;SDS011;25426;53.478;10.190;2023-05-19T03:28:44;11.18;;;6.32;;
39740;SDS011;25426;53.478;10.190;2023-05-19T03:31:15;11.75;;;5.47;;
39740;SDS011;25426;53.478;10.190;2023-05-19T03:33:46;10.75;;;6.30;;
39740;SDS011;25426;53.478;10.190;2023-05-19T03:36:17;9.90;;;6.38;;
39740;SDS011;25426;53.478;10.190;2023-05-19T03:38:48;9.33;;;5.53;;
39740;SDS011;25426;53.478;10.190;2023-05-19T03:41:19;11.30;;;6.20;;
39740;SDS011;25426;53.478;10.190;2023-05-19T03:43:50;11.10;;;6.07;;
39740;SDS011;25426;53.478;10.190;2023-05-19T03:46:21;9.85;;;5.80;;
39740;SDS011;25426;53.478;10.190;2023-05-19T03:49:11;10.32;;;6.18;;
39740;SDS011;25426;53.478;10.190;2023-05-19T03:51:43;11.90;;;5.95;;
39740;SDS011;25426;53.478;10.190;2023-05-19T03:54:31;10.10;;;5.80;;
39740;SDS011;25426;53.478;10.190;2023-05-19T03:57:02;9.60;;;6.13;;
39740;SDS011;25426;53.478;10.190;2023-05-19T03:59:34;10.53;;;6.10;;
39740;SDS011;25426;53.478;10.190;2023-05-19T04:02:07;13.90;;;6.37;;
39740;SDS011;25426;53.478;10.190;2023-05-19T04:04:38;13.45;;;6.15;;
39740;SDS011;25426;53.478;10.190;2023-05-19T04:07:09;12.80;;;6.43;;
39740;SDS011;25426;53.478;10.190;2023-05-19T04:09:40;11.37;;;5.67;;
39740;SDS011;25426;53.478;10.190;2023-05-19T04:12:11;9.80;;;6.27;;
39740;SDS011;25426;53.478;10.190;2023-05-19T04:14:42;11.52;;;6.25;;
39740;SDS011;25426;53.478;10.190;2023-05-19T04:17:13;11.27;;;6.32;;
39740;SDS011;25426;53.478;10.190;2023-05-19T04:19:44;12.50;;;6.53;;
39740;SDS011;25426;53.478;10.190;2023-05-19T04:22:15;11.10;;;6.68;;
39740;SDS011;25426;53.478;10.190;2023-05-19T04:24:46;11.13;;;6.50;;
39740;SDS011;25426;53.478;10.190;2023-05-19T04:27:18;9.20;;;5.20;;
39740;SDS011;25426;53.478;10.190;2023-05-19T04:29:51;10.82;;;6.30;;
39740;SDS011;25426;53.478;10.190;2023-05-19T04:32:22;10.90;;;5.60;;
39740;SDS011;25426;53.478;10.190;2023-05-19T04:34:54;12.10;;;6.25;;
39740;SDS011;25426;53.478;10.190;2023-05-19T04:37:29;11.40;;;6.10;;
39740;SDS011;25426;53.478;10.190;2023-05-19T04:40:01;10.45;;;5.32;;
39740;SDS011;25426;53.478;10.190;2023-05-19T04:42:34;11.38;;;5.90;;
39740;SDS011;25426;53.478;10.190;2023-05-19T04:45:07;10.40;;;5.90;;
39740;SDS011;25426;53.478;10.190;2023-05-19T04:47:43;9.37;;;5.03;;
39740;SDS011;25426;53.478;10.190;2023-05-19T04:50:15;10.88;;;6.05;;
39740;SDS011;25426;53.478;10.190;2023-05-19T04:52:47;9.03;;;5.20;;
39740;SDS011;25426;53.478;10.190;2023-05-19T04:55:18;10.38;;;6.22;;
39740;SDS011;25426;53.478;10.190;2023-05-19T04:57:51;9.25;;;5.65;;
39740;SDS011;25426;53.478;10.190;2023-05-19T05:00:23;9.10;;;5.47;;
39740;SDS011;25426;53.478;10.190;2023-05-19T05:03:00;12.77;;;6.05;;
39740;SDS011;25426;53.478;10.190;2023-05-19T05:05:35;12.63;;;5.50;;
39740;SDS011;25426;53.478;10.190;2023-05-19T05:08:06;13.18;;;5.63;;
39740;SDS011;25426;53.478;10.190;2023-05-19T05:10:46;10.43;;;5.40;;
39740;SDS011;25426;53.478;10.190;2023-05-19T05:13:22;10.77;;;5.10;;
39740;SDS011;25426;53.478;10.190;2023-05-19T05:15:53;12.68;;;4.85;;
39740;SDS011;25426;53.478;10.190;2023-05-19T05:18:25;12.35;;;5.40;;
39740;SDS011;25426;53.478;10.190;2023-05-19T05:20:57;14.07;;;5.10;;
39740;SDS011;25426;53.478;10.190;2023-05-19T05:23:28;10.87;;;5.07;;
39740;SDS011;25426;53.478;10.190;2023-05-19T05:26:00;9.05;;;5.00;;
39740;SDS011;25426;53.478;10.190;2023-05-19T05:28:40;11.30;;;5.25;;
39740;SDS011;25426;53.478;10.190;2023-05-19T05:31:11;10.93;;;5.28;;
39740;SDS011;25426;53.478;10.190;2023-05-19T05:33:43;9.85;;;5.03;;
39740;SDS011;25426;53.478;10.190;2023-05-19T05:36:14;11.18;;;5.65;;
39740;SDS011;25426;53.478;10.190;2023-05-19T05:38:45;11.63;;;4.90;;
39740;SDS011;25426;53.478;10.190;2023-05-19T05:41:16;10.75;;;4.90;;
39740;SDS011;25426;53.478;10.190;2023-05-19T05:43:50;12.13;;;4.88;;
39740;SDS011;25426;53.478;10.190;2023-05-19T05:46:21;7.90;;;4.10;;
39740;SDS011;25426;53.478;10.190;2023-05-19T05:48:52;9.30;;;4.00;;
39740;SDS011;25426;53.478;10.190;2023-05-19T05:51:24;10.90;;;4.22;;
39740;SDS011;25426;53.478;10.190;2023-05-19T05:53:55;9.00;;;3.85;;
39740;SDS011;25426;53.478;10.190;2023-05-19T05:56:34;10.53;;;4.43;;
39740;SDS011;25426;53.478;10.190;2023-05-19T05:59:07;8.32;;;3.50;;
39740;SDS011;25426;53.478;10.190;2023-05-19T06:01:38;7.43;;;3.80;;
39740;SDS011;25426;53.478;10.190;2023-05-19T06:04:12;8.30;;;3.60;;
39740;SDS011;25426;53.478;10.190;2023-05-19T06:06:43;8.00;;;3.85;;
39740;SDS011;25426;53.478;10.190;2023-05-19T06:09:17;8.73;;;3.70;;
39740;SDS011;25426;53.478;10.190;2023-05-19T06:11:48;8.82;;;3.70;;
39740;SDS011;25426;53.478;10.190;2023-05-19T06:14:20;8.98;;;3.30;;
39740;SDS011;25426;53.478;10.190;2023-05-19T06:17:09;7.03;;;3.55;;
39740;SDS011;25426;53.478;10.190;2023-05-19T06:19:41;10.32;;;3.53;;
39740;SDS011;25426;53.478;10.190;2023-05-19T06:22:12;7.63;;;3.38;;
39740;SDS011;25426;53.478;10.190;2023-05-19T06:24:43;9.40;;;3.50;;
39740;SDS011;25426;53.478;10.190;2023-05-19T06:27:14;9.37;;;3.40;;
39740;SDS011;25426;53.478;10.190;2023-05-19T06:29:45;8.73;;;3.28;;
39740;SDS011;25426;53.478;10.190;2023-05-19T06:32:16;7.70;;;3.20;;
39740;SDS011;25426;53.478;10.190;2023-05-19T06:34:48;11.57;;;3.60;;
39740;SDS011;25426;53.478;10.190;2023-05-19T06:37:23;7.90;;;3.30;;
39740;SDS011;25426;53.478;10.190;2023-05-19T06:39:54;6.72;;;2.72;;
39740;SDS011;25426;53.478;10.190;2023-05-19T06:42:25;6.43;;;3.03;;
39740;SDS011;25426;53.478;10.190;2023-05-19T06:45:11;8.07;;;2.92;;
39740;SDS011;25426;53.478;10.190;2023-05-19T06:47:42;7.80;;;3.25;;
39740;SDS011;25426;53.478;10.190;2023-05-19T06:50:14;7.25;;;2.63;;
39740;SDS011;25426;53.478;10.190;2023-05-19T06:52:46;7.45;;;3.28;;
39740;SDS011;25426;53.478;10.190;2023-05-19T06:55:17;6.05;;;2.70;;
39740;SDS011;25426;53.478;10.190;2023-05-19T06:57:48;7.45;;;3.03;;
39740;SDS011;25426;53.478;10.190;2023-05-19T07:00:21;7.55;;;3.03;;
39740;SDS011;25426;53.478;10.190;2023-05-19T07:02:52;6.15;;;2.63;;
39740;SDS011;25426;53.478;10.190;2023-05-19T07:05:23;8.60;;;3.25;;
39740;SDS011;25426;53.478;10.190;2023-05-19T07:07:59;7.20;;;3.63;;
39740;SDS011;25426;53.478;10.190;2023-05-19T07:10:32;8.27;;;3.40;;
39740;SDS011;25426;53.478;10.190;2023-05-19T07:13:09;8.40;;;2.92;;
39740;SDS011;25426;53.478;10.190;2023-05-19T07:15:47;8.30;;;2.95;;
39740;SDS011;25426;53.478;10.190;2023-05-19T07:18:20;8.30;;;3.17;;
39740;SDS011;25426;53.478;10.190;2023-05-19T07:20:51;8.27;;;3.35;;
39740;SDS011;25426;53.478;10.190;2023-05-19T07:23:26;8.70;;;2.90;;
39740;SDS011;25426;53.478;10.190;2023-05-19T07:25:57;6.88;;;2.63;;
39740;SDS011;25426;53.478;10.190;2023-05-19T07:28:28;8.93;;;3.30;;
39740;SDS011;25426;53.478;10.190;2023-05-19T07:30:59;11.00;;;3.10;;
39740;SDS011;25426;53.478;10.190;2023-05-19T07:33:30;7.35;;;2.58;;
39740;SDS011;25426;53.478;10.190;2023-05-19T07:36:04;8.00;;;2.75;;
39740;SDS011;25426;53.478;10.190;2023-05-19T07:42:57;7.43;;;2.85;;
39740;SDS011;25426;53.478;10.190;2023-05-19T07:45:37;6.85;;;2.88;;
39740;SDS011;25426;53.478;10.190;2023-05-19T07:48:08;6.60;;;2.60;;
39740;SDS011;25426;53.478;10.190;2023-05-19T07:50:39;9.70;;;3.00;;
39740;SDS011;25426;53.478;10.190;2023-05-19T07:53:10;7.50;;;2.60;;
39740;SDS011;25426;53.478;10.190;2023-05-19T07:55:41;6.88;;;2.20;;
39740;SDS011;25426;53.478;10.190;2023-05-19T07:58:12;7.45;;;2.63;;
39740;SDS011;25426;53.478;10.190;2023-05-19T08:00:44;5.78;;;2.40;;
39740;SDS011;25426;53.478;10.190;2023-05-19T08:03:15;7.40;;;2.63;;
39740;SDS011;25426;53.478;10.190;2023-05-19T08:05:47;8.35;;;3.17;;
39740;SDS011;25426;53.478;10.190;2023-05-19T08:08:17;9.68;;;2.33;;
39740;SDS011;25426;53.478;10.190;2023-05-19T08:10:48;5.55;;;2.05;;
39740;SDS011;25426;53.478;10.190;2023-05-19T08:13:19;10.77;;;2.63;;
39740;SDS011;25426;53.478;10.190;2023-05-19T08:15:50;5.40;;;1.88;;
39740;SDS011;25426;53.478;10.190;2023-05-19T08:18:23;8.35;;;2.50;;
39740;SDS011;25426;53.478;10.190;2023-05-19T08:20:55;6.50;;;2.42;;
39740;SDS011;25426;53.478;10.190;2023-05-19T08:23:26;7.43;;;2.20;;
39740;SDS011;25426;53.478;10.190;2023-05-19T08:25:59;5.43;;;2.10;;
39740;SDS011;25426;53.478;10.190;2023-05-19T08:28:31;7.57;;;2.40;;
39740;SDS011;25426;53.478;10.190;2023-05-19T08:31:02;6.95;;;2.30;;
39740;SDS011;25426;53.478;10.190;2023-05-19T08:33:34;6.20;;;2.80;;
39740;SDS011;25426;53.478;10.190;2023-05-19T08:36:08;6.63;;;2.37;;
39740;SDS011;25426;53.478;10.190;2023-05-19T08:38:44;6.35;;;2.40;;
39740;SDS011;25426;53.478;10.190;2023-05-19T08:41:18;7.63;;;2.53;;
39740;SDS011;25426;53.478;10.190;2023-05-19T08:44:00;7.30;;;2.28;;
39740;SDS011;25426;53.478;10.190;2023-05-19T08:46:36;5.80;;;1.85;;
39740;SDS011;25426;53.478;10.190;2023-05-19T08:49:16;6.10;;;2.20;;
39740;SDS011;25426;53.478;10.190;2023-05-19T08:55:24;7.53;;;2.38;;
39740;SDS011;25426;53.478;10.190;2023-05-19T08:58:18;4.95;;;2.08;;
39740;SDS011;25426;53.478;10.190;2023-05-19T09:00:56;7.07;;;2.20;;
39740;SDS011;25426;53.478;10.190;2023-05-19T09:03:31;7.03;;;2.70;;
39740;SDS011;25426;53.478;10.190;2023-05-19T09:06:18;5.50;;;1.92;;
39740;SDS011;25426;53.478;10.190;2023-05-19T09:12:50;5.10;;;2.38;;
39740;SDS011;25426;53.478;10.190;2023-05-19T09:15:25;7.33;;;2.37;;
39740;SDS011;25426;53.478;10.190;2023-05-19T09:21:31;7.45;;;2.80;;
39740;SDS011;25426;53.478;10.190;2023-05-19T09:24:03;7.40;;;2.45;;
39740;SDS011;25426;53.478;10.190;2023-05-19T09:26:42;5.20;;;2.45;;
39740;SDS011;25426;53.478;10.190;2023-05-19T09:29:19;6.53;;;2.40;;
39740;SDS011;25426;53.478;10.190;2023-05-19T09:31:51;9.48;;;2.22;;
39740;SDS011;25426;53.478;10.190;2023-05-19T09:34:39;6.93;;;2.58;;
39740;SDS011;25426;53.478;10.190;2023-05-19T09:37:14;5.28;;;2.03;;
39740;SDS011;25426;53.478;10.190;2023-05-19T09:40:07;5.97;;;1.98;;
39740;SDS011;25426;53.478;10.190;2023-05-19T09:42:49;4.60;;;2.20;;
39740;SDS011;25426;53.478;10.190;2023-05-19T09:45:20;5.53;;;1.92;;
39740;SDS011;25426;53.478;10.190;2023-05-19T09:48:04;4.75;;;2.20;;
39740;SDS011;25426;53.478;10.190;2023-05-19T09:50:37;5.47;;;2.45;;
39740;SDS011;25426;53.478;10.190;2023-05-19T09:53:11;5.43;;;2.57;;
39740;SDS011;25426;53.478;10.190;2023-05-19T09:55:43;5.63;;;2.57;;
39740;SDS011;25426;53.478;10.190;2023-05-19T09:58:15;6.93;;;2.27;;
39740;SDS011;25426;53.478;10.190;2023-05-19T10:00:47;8.55;;;2.25;;
39740;SDS011;25426;53.478;10.190;2023-05-19T10:03:24;5.72;;;2.33;;
39740;SDS011;25426;53.478;10.190;2023-05-19T10:05:55;4.75;;;2.33;;
39740;SDS011;25426;53.478;10.190;2023-05-19T10:08:27;6.47;;;2.15;;
39740;SDS011;25426;53.478;10.190;2023-05-19T10:10:59;6.90;;;2.07;;
39740;SDS011;25426;53.478;10.190;2023-05-19T10:13:30;6.70;;;2.03;;
39740;SDS011;25426;53.478;10.190;2023-05-19T10:16:05;6.15;;;2.25;;
39740;SDS011;25426;53.478;10.190;2023-05-19T10:18:36;6.25;;;2.00;;
39740;SDS011;25426;53.478;10.190;2023-05-19T10:21:09;7.68;;;2.08;;
39740;SDS011;25426;53.478;10.190;2023-05-19T10:23:41;5.20;;;2.03;;
39740;SDS011;25426;53.478;10.190;2023-05-19T10:26:12;7.60;;;2.40;;
39740;SDS011;25426;53.478;10.190;2023-05-19T10:28:43;6.23;;;1.97;;
39740;SDS011;25426;53.478;10.190;2023-05-19T10:31:15;5.47;;;2.15;;
39740;SDS011;25426;53.478;10.190;2023-05-19T10:37:04;6.43;;;2.35;;
39740;SDS011;25426;53.478;10.190;2023-05-19T10:39:52;4.95;;;2.15;;
39740;SDS011;25426;53.478;10.190;2023-05-19T10:42:28;7.67;;;2.30;;
39740;SDS011;25426;53.478;10.190;2023-05-19T10:45:16;7.57;;;2.47;;
39740;SDS011;25426;53.478;10.190;2023-05-19T10:47:53;6.70;;;2.30;;
39740;SDS011;25426;53.478;10.190;2023-05-19T10:50:24;4.68;;;2.08;;
39740;SDS011;25426;53.478;10.190;2023-05-19T10:52:55;7.03;;;1.80;;
39740;SDS011;25426;53.478;10.190;2023-05-19T10:55:46;5.35;;;2.15;;
39740;SDS011;25426;53.478;10.190;2023-05-19T11:02:05;5.28;;;2.00;;
39740;SDS011;25426;53.478;10.190;2023-05-19T11:04:38;5.72;;;2.42;;
39740;SDS011;25426;53.478;10.190;2023-05-19T11:08:18;4.73;;;2.17;;
39740;SDS011;25426;53.478;10.190;2023-05-19T11:11:23;5.25;;;1.73;;
39740;SDS011;25426;53.478;10.190;2023-05-19T11:13:58;4.60;;;1.75;;
39740;SDS011;25426;53.478;10.190;2023-05-19T11:16:33;5.85;;;2.10;;
39740;SDS011;25426;53.478;10.190;2023-05-19T11:19:15;3.95;;;1.42;;
39740;SDS011;25426;53.478;10.190;2023-05-19T11:22:28;4.82;;;1.70;;
39740;SDS011;25426;53.478;10.190;2023-05-19T11:25:02;4.20;;;1.77;;
39740;SDS011;25426;53.478;10.190;2023-05-19T11:27:47;5.47;;;1.90;;
39740;SDS011;25426;53.478;10.190;2023-05-19T11:30:20;4.03;;;1.60;;
39740;SDS011;25426;53.478;10.190;2023-05-19T11:32:56;5.38;;;1.95;;
39740;SDS011;25426;53.478;10.190;2023-05-19T11:35:38;5.20;;;1.85;;
39740;SDS011;25426;53.478;10.190;2023-05-19T11:38:12;7.05;;;2.25;;
39740;SDS011;25426;53.478;10.190;2023-05-19T11:40:51;4.90;;;1.98;;
39740;SDS011;25426;53.478;10.190;2023-05-19T11:43:23;4.70;;;2.00;;
39740;SDS011;25426;53.478;10.190;2023-05-19T11:46:05;4.90;;;1.67;;
39740;SDS011;25426;53.478;10.190;2023-05-19T11:48:39;3.22;;;1.50;;
39740;SDS011;25426;53.478;10.190;2023-05-19T11:51:15;4.10;;;1.67;;
39740;SDS011;25426;53.478;10.190;2023-05-19T11:53:49;5.32;;;2.10;;
39740;SDS011;25426;53.478;10.190;2023-05-19T11:56:20;3.90;;;1.80;;
39740;SDS011;25426;53.478;10.190;2023-05-19T11:58:51;3.55;;;1.75;;
39740;SDS011;25426;53.478;10.190;2023-05-19T12:01:26;4.32;;;1.67;;
39740;SDS011;25426;53.478;10.190;2023-05-19T12:03:57;2.90;;;1.63;;
39740;SDS011;25426;53.478;10.190;2023-05-19T12:06:28;5.30;;;1.73;;
39740;SDS011;25426;53.478;10.190;2023-05-19T12:08:59;3.80;;;1.70;;
39740;SDS011;25426;53.478;10.190;2023-05-19T12:11:31;4.50;;;1.83;;
39740;SDS011;25426;53.478;10.190;2023-05-19T12:14:02;3.53;;;1.77;;
39740;SDS011;25426;53.478;10.190;2023-05-19T12:16:35;4.83;;;1.83;;
39740;SDS011;25426;53.478;10.190;2023-05-19T12:19:06;3.83;;;1.80;;
39740;SDS011;25426;53.478;10.190;2023-05-19T12:21:38;4.32;;;1.75;;
39740;SDS011;25426;53.478;10.190;2023-05-19T12:24:12;4.82;;;1.80;;
39740;SDS011;25426;53.478;10.190;2023-05-19T12:26:43;4.97;;;1.60;;
39740;SDS011;25426;53.478;10.190;2023-05-19T12:29:14;5.03;;;1.90;;
39740;SDS011;25426;53.478;10.190;2023-05-19T12:31:51;5.65;;;2.40;;
39740;SDS011;25426;53.478;10.190;2023-05-19T12:34:25;5.87;;;1.80;;
39740;SDS011;25426;53.478;10.190;2023-05-19T12:37:27;5.15;;;1.80;;
39740;SDS011;25426;53.478;10.190;2023-05-19T12:40:03;2.67;;;1.50;;
39740;SDS011;25426;53.478;10.190;2023-05-19T12:42:54;8.38;;;2.10;;
39740;SDS011;25426;53.478;10.190;2023-05-19T12:45:39;7.73;;;2.30;;
39740;SDS011;25426;53.478;10.190;2023-05-19T12:48:15;6.43;;;2.13;;
39740;SDS011;25426;53.478;10.190;2023-05-19T12:57:56;3.08;;;1.58;;
39740;SDS011;25426;53.478;10.190;2023-05-19T13:00:46;3.47;;;1.75;;
39740;SDS011;25426;53.478;10.190;2023-05-19T13:03:23;4.45;;;1.75;;
39740;SDS011;25426;53.478;10.190;2023-05-19T13:05:54;4.03;;;1.52;;
39740;SDS011;25426;53.478;10.190;2023-05-19T13:08:45;5.55;;;1.60;;
39740;SDS011;25426;53.478;10.190;2023-05-19T13:11:24;4.18;;;2.00;;
39740;SDS011;25426;53.478;10.190;2023-05-19T13:13:55;4.90;;;1.93;;
39740;SDS011;25426;53.478;10.190;2023-05-19T13:16:26;5.37;;;2.33;;
39740;SDS011;25426;53.478;10.190;2023-05-19T13:19:04;7.25;;;2.38;;
39740;SDS011;25426;53.478;10.190;2023-05-19T13:21:35;5.05;;;1.70;;
39740;SDS011;25426;53.478;10.190;2023-05-19T13:24:06;4.83;;;2.27;;
39740;SDS011;25426;53.478;10.190;2023-05-19T13:26:43;4.43;;;2.23;;
39740;SDS011;25426;53.478;10.190;2023-05-19T13:32:12;6.77;;;2.17;;
39740;SDS011;25426;53.478;10.190;2023-05-19T13:34:46;6.70;;;2.00;;
39740;SDS011;25426;53.478;10.190;2023-05-19T13:37:23;7.00;;;2.20;;
39740;SDS011;25426;53.478;10.190;2023-05-19T13:39:54;4.80;;;1.80;;
39740;SDS011;25426;53.478;10.190;2023-05-19T13:42:27;5.50;;;2.00;;
39740;SDS011;25426;53.478;10.190;2023-05-19T13:45:04;5.40;;;2.08;;
39740;SDS011;25426;53.478;10.190;2023-05-19T13:47:37;6.40;;;2.10;;
39740;SDS011;25426;53.478;10.190;2023-05-19T13:50:08;7.15;;;2.40;;
39740;SDS011;25426;53.478;10.190;2023-05-19T13:52:39;6.70;;;2.20;;
39740;SDS011;25426;53.478;10.190;2023-05-19T13:55:10;7.75;;;2.58;;
39740;SDS011;25426;53.478;10.190;2023-05-19T13:57:41;7.20;;;2.42;;
39740;SDS011;25426;53.478;10.190;2023-05-19T14:00:12;7.18;;;2.47;;
39740;SDS011;25426;53.478;10.190;2023-05-19T14:02:43;5.82;;;2.60;;
39740;SDS011;25426;53.478;10.190;2023-05-19T14:05:15;4.95;;;1.98;;
39740;SDS011;25426;53.478;10.190;2023-05-19T14:07:46;8.47;;;1.93;;
39740;SDS011;25426;53.478;10.190;2023-05-19T14:10:17;5.65;;;2.08;;
39740;SDS011;25426;53.478;10.190;2023-05-19T14:12:48;3.93;;;2.10;;
39740;SDS011;25426;53.478;10.190;2023-05-19T14:15:19;6.40;;;2.72;;
39740;SDS011;25426;53.478;10.190;2023-05-19T14:17:50;4.97;;;2.00;;
39740;SDS011;25426;53.478;10.190;2023-05-19T14:20:22;6.20;;;2.45;;
39740;SDS011;25426;53.478;10.190;2023-05-19T14:22:52;8.55;;;2.22;;
39740;SDS011;25426;53.478;10.190;2023-05-19T14:25:24;5.03;;;2.13;;
39740;SDS011;25426;53.478;10.190;2023-05-19T14:27:55;4.85;;;2.10;;
39740;SDS011;25426;53.478;10.190;2023-05-19T14:30:26;5.82;;;2.10;;
39740;SDS011;25426;53.478;10.190;2023-05-19T14:32:57;4.32;;;2.05;;
39740;SDS011;25426;53.478;10.190;2023-05-19T14:35:28;5.43;;;1.95;;
39740;SDS011;25426;53.478;10.190;2023-05-19T14:37:59;6.17;;;2.03;;
39740;SDS011;25426;53.478;10.190;2023-05-19T14:40:30;7.45;;;2.30;;
39740;SDS011;25426;53.478;10.190;2023-05-19T14:43:01;6.47;;;2.33;;
39740;SDS011;25426;53.478;10.190;2023-05-19T14:45:32;7.60;;;2.65;;
39740;SDS011;25426;53.478;10.190;2023-05-19T14:48:02;5.57;;;2.23;;
39740;SDS011;25426;53.478;10.190;2023-05-19T14:50:34;5.75;;;2.10;;
39740;SDS011;25426;53.478;10.190;2023-05-19T14:53:05;6.07;;;2.30;;
39740;SDS011;25426;53.478;10.190;2023-05-19T14:55:36;6.85;;;2.40;;
39740;SDS011;25426;53.478;10.190;2023-05-19T14:58:07;7.32;;;2.40;;
39740;SDS011;25426;53.478;10.190;2023-05-19T15:00:40;5.10;;;2.22;;
39740;SDS011;25426;53.478;10.190;2023-05-19T15:03:11;5.30;;;2.05;;
39740;SDS011;25426;53.478;10.190;2023-05-19T15:05:43;6.53;;;2.08;;
39740;SDS011;25426;53.478;10.190;2023-05-19T15:08:14;12.32;;;3.17;;
39740;SDS011;25426;53.478;10.190;2023-05-19T15:10:48;4.65;;;2.00;;
39740;SDS011;25426;53.478;10.190;2023-05-19T15:13:19;5.25;;;2.10;;
39740;SDS011;25426;53.478;10.190;2023-05-19T15:15:52;7.70;;;2.70;;
39740;SDS011;25426;53.478;10.190;2023-05-19T15:18:24;7.55;;;2.22;;
39740;SDS011;25426;53.478;10.190;2023-05-19T15:20:55;9.13;;;2.47;;
39740;SDS011;25426;53.478;10.190;2023-05-19T15:23:26;5.35;;;2.30;;
39740;SDS011;25426;53.478;10.190;2023-05-19T15:25:57;5.60;;;2.00;;
39740;SDS011;25426;53.478;10.190;2023-05-19T15:28:29;6.57;;;2.53;;
39740;SDS011;25426;53.478;10.190;2023-05-19T15:31:02;7.55;;;2.45;;
39740;SDS011;25426;53.478;10.190;2023-05-19T15:33:33;5.45;;;1.92;;
39740;SDS011;25426;53.478;10.190;2023-05-19T15:36:08;5.40;;;2.10;;
39740;SDS011;25426;53.478;10.190;2023-05-19T15:38:45;6.85;;;2.50;;
39740;SDS011;25426;53.478;10.190;2023-05-19T15:41:16;4.38;;;2.00;;
39740;SDS011;25426;53.478;10.190;2023-05-19T15:48:01;4.70;;;1.90;;
39740;SDS011;25426;53.478;10.190;2023-05-19T15:53:19;5.40;;;2.10;;
39740;SDS011;25426;53.478;10.190;2023-05-19T15:55:55;5.60;;;1.97;;
39740;SDS011;25426;53.478;10.190;2023-05-19T15:58:26;4.45;;;2.10;;
39740;SDS011;25426;53.478;10.190;2023-05-19T16:14:03;5.93;;;1.83;;
39740;SDS011;25426;53.478;10.190;2023-05-19T16:16:35;5.20;;;2.10;;